Time;durP1;ratioP1;P1;durP2;ratioP2;P2;SDS_P1;SDS_P2;PMS_P1;PMS_P2;Temp;Humidity;BMP_temperature;BMP_pressure;BME280_temperature;BME280_humidity;BME280_pressure;Samples;Min_cycle;Max_cycle;Signal;HPM_P1;HPM_P2
2022/10/27 00:01:50;;;;;;;14.57;6.60;;;;;;;11.98;100.00;102081.72;5070619;28;20260;-84
2022/10/27 00:04:19;;;;;;;10.98;6.18;;;;;;;11.97;100.00;102090.50;5055133;28;20063;-84
2022/10/27 00:06:51;;;;;;;13.38;6.53;;;;;;;11.96;100.00;102089.59;5060766;27;20287;-84
2022/10/27 00:09:19;;;;;;;11.73;6.60;;;;;;;11.96;100.00;102099.28;5073739;28;20051;-84
2022/10/27 00:11:48;;;;;;;14.82;7.13;;;;;;;11.95;100.00;102097.53;5057375;28;20039;-84
2022/10/27 00:14:18;;;;;;;13.93;6.80;;;;;;;11.94;100.00;102107.19;5088386;28;20048;-84
2022/10/27 00:16:54;;;;;;;12.80;6.90;;;;;;;11.95;100.00;102108.09;5030307;28;20146;-84
2022/10/27 00:19:24;;;;;;;12.70;7.13;;;;;;;11.93;100.00;102105.41;5051178;28;20047;-84
2022/10/27 00:21:53;;;;;;;10.38;6.75;;;;;;;11.93;100.00;102100.13;5067960;28;20043;-84
2022/10/27 00:24:22;;;;;;;15.63;7.53;;;;;;;11.90;100.00;102108.00;5077642;28;20057;-84
2022/10/27 00:26:51;;;;;;;15.13;7.75;;;;;;;11.88;100.00;102107.03;5092049;28;20513;-84
2022/10/27 00:29:19;;;;;;;13.85;6.93;;;;;;;11.86;100.00;102111.41;5061877;28;20044;-84
2022/10/27 00:31:47;;;;;;;12.52;7.35;;;;;;;11.87;100.00;102107.88;5038771;28;20042;-84
2022/10/27 00:34:16;;;;;;;16.52;8.45;;;;;;;11.89;100.00;102111.47;5077485;28;20046;-84
2022/10/27 00:36:47;;;;;;;15.75;8.40;;;;;;;11.89;100.00;102109.75;5072505;28;20044;-84
2022/10/27 00:39:15;;;;;;;19.13;8.32;;;;;;;11.92;100.00;102102.75;5068752;28;20052;-84
2022/10/27 00:41:44;;;;;;;16.13;8.50;;;;;;;11.90;100.00;102100.06;5063598;28;20256;-84
2022/10/27 00:44:35;;;;;;;16.25;7.88;;;;;;;11.90;100.00;102115.91;5100884;28;20056;-84
2022/10/27 00:47:23;;;;;;;13.13;7.53;;;;;;;11.91;100.00;102115.06;5028625;28;20075;-84
2022/10/27 00:50:13;;;;;;;12.45;7.53;;;;;;;11.92;100.00;102116.81;5064470;28;20420;-84
2022/10/27 00:52:58;;;;;;;13.30;7.20;;;;;;;11.92;100.00;102111.53;5082613;27;20505;-84
2022/10/27 00:55:32;;;;;;;16.02;7.40;;;;;;;11.93;100.00;102115.97;5099447;28;20044;-84
2022/10/27 00:58:05;;;;;;;11.82;7.18;;;;;;;11.92;100.00;102111.53;5108069;28;20050;-84
2022/10/27 01:00:37;;;;;;;12.20;7.65;;;;;;;11.93;100.00;102125.63;5068351;28;20067;-83
2022/10/27 01:03:07;;;;;;;15.88;6.70;;;;;;;11.92;100.00;102127.41;5091578;28;20044;-84
2022/10/27 01:05:38;;;;;;;14.13;7.47;;;;;;;11.91;100.00;102128.28;5078601;28;20040;-84
2022/10/27 01:08:07;;;;;;;9.65;6.65;;;;;;;11.90;100.00;102135.28;5088801;28;20059;-84
2022/10/27 01:10:36;;;;;;;10.45;6.53;;;;;;;11.88;100.00;102134.34;5056957;28;20044;-84
2022/10/27 01:13:05;;;;;;;13.85;6.78;;;;;;;11.87;100.00;102135.22;5049836;28;20497;-84
2022/10/27 01:15:45;;;;;;;16.55;6.97;;;;;;;11.83;100.00;102138.66;5020382;28;20040;-84
2022/10/27 01:18:25;;;;;;;13.40;6.60;;;;;;;11.79;100.00;102141.19;5101321;28;20044;-84
2022/10/27 01:21:39;;;;;;;11.82;6.43;;;;;;;11.75;100.00;102147.28;5085951;28;20032;-83
2022/10/27 01:24:40;;;;;;;13.50;6.18;;;;;;;11.71;100.00;102152.50;5087002;28;20493;-84
2022/10/27 01:27:41;;;;;;;19.20;7.32;;;;;;;11.69;100.00;102148.94;5084752;28;20043;-84
2022/10/27 01:30:17;;;;;;;17.13;6.95;;;;;;;11.69;100.00;102141.03;5057163;28;20048;-84
2022/10/27 01:33:00;;;;;;;16.90;6.82;;;;;;;11.69;100.00;102142.78;5049442;28;20249;-84
2022/10/27 01:35:37;;;;;;;16.85;7.47;;;;;;;11.70;100.00;102147.19;5089231;28;20382;-84
2022/10/27 01:38:30;;;;;;;14.88;7.63;;;;;;;11.70;100.00;102147.19;5090475;28;20039;-84
2022/10/27 01:41:34;;;;;;;16.58;7.22;;;;;;;11.68;100.00;102157.75;5093925;27;20673;-84
2022/10/27 01:44:10;;;;;;;15.80;8.52;;;;;;;11.70;100.00;102152.47;5070920;28;20505;-84
2022/10/27 01:46:47;;;;;;;12.30;7.70;;;;;;;11.69;100.00;102159.50;5065218;28;20071;-84
2022/10/27 01:49:15;;;;;;;11.70;7.07;;;;;;;11.69;100.00;102162.16;5071869;28;20048;-84
2022/10/27 01:51:43;;;;;;;18.33;8.45;;;;;;;11.70;100.00;102156.03;5045011;28;20363;-84
2022/10/27 01:54:12;;;;;;;20.90;8.57;;;;;;;11.72;100.00;102153.41;5053135;28;20043;-84
2022/10/27 01:56:51;;;;;;;10.98;8.40;;;;;;;11.74;100.00;102166.63;5078916;28;20063;-84
2022/10/27 01:59:19;;;;;;;14.63;8.40;;;;;;;11.75;100.00;102155.22;5057760;28;20389;-84
2022/10/27 02:01:54;;;;;;;26.30;9.45;;;;;;;11.76;100.00;102160.53;5060260;28;20276;-84
2022/10/27 02:04:43;;;;;;;14.45;8.00;;;;;;;11.76;100.00;102163.19;5059719;28;20051;-84
2022/10/27 02:07:57;;;;;;;13.55;8.38;;;;;;;11.77;100.00;102167.56;5087185;28;20072;-84
2022/10/27 02:11:05;;;;;;;17.05;9.27;;;;;;;11.77;100.00;102171.97;5064755;28;20051;-84
2022/10/27 02:13:38;;;;;;;16.83;9.93;;;;;;;11.78;100.00;102171.13;5087011;28;20044;-83
2022/10/27 02:16:20;;;;;;;23.02;9.60;;;;;;;11.79;100.00;102181.69;5077207;28;20036;-83
2022/10/27 02:18:55;;;;;;;16.95;9.27;;;;;;;11.80;100.00;102174.69;5080475;28;20071;-83
2022/10/27 02:21:24;;;;;;;17.27;9.32;;;;;;;11.81;100.00;102168.53;5089219;28;20051;-85
2022/10/27 02:23:53;;;;;;;13.18;8.93;;;;;;;11.81;100.00;102173.81;5071095;28;20066;-85
2022/10/27 02:26:38;;;;;;;13.00;8.95;;;;;;;11.80;100.00;102177.34;5069600;28;20048;-85
2022/10/27 02:29:31;;;;;;;15.27;8.98;;;;;;;11.79;100.00;102171.13;5086447;28;20083;-82
2022/10/27 02:32:05;;;;;;;17.10;8.90;;;;;;;11.77;100.00;102177.25;5091888;28;20047;-84
2022/10/27 02:34:36;;;;;;;12.60;9.07;;;;;;;11.75;100.00;102181.63;5079050;28;20074;-84
2022/10/27 02:37:08;;;;;;;16.70;8.55;;;;;;;11.72;100.00;102169.25;5079959;28;20070;-84
2022/10/27 02:39:36;;;;;;;14.30;7.63;;;;;;;11.68;100.00;102178.88;5106892;28;20054;-84
2022/10/27 02:42:08;;;;;;;15.70;7.60;;;;;;;11.62;100.00;102186.63;5066003;28;20044;-84
2022/10/27 02:44:37;;;;;;;14.93;8.40;;;;;;;11.57;100.00;102184.78;5030000;28;20047;-84
2022/10/27 02:47:05;;;;;;;10.88;7.18;;;;;;;11.51;100.00;102181.16;5074514;28;20408;-84
2022/10/27 02:49:37;;;;;;;11.52;8.35;;;;;;;11.47;100.00;102183.69;5045260;28;20047;-85
2022/10/27 02:52:05;;;;;;;13.35;7.55;;;;;;;11.41;100.00;102187.09;5048706;28;20040;-84
2022/10/27 02:54:34;;;;;;;13.80;7.85;;;;;;;11.38;100.00;102188.78;5102136;28;20059;-85
2022/10/27 02:57:02;;;;;;;14.75;9.15;;;;;;;11.34;100.00;102186.94;5089952;28;20050;-84
2022/10/27 02:59:30;;;;;;;14.38;7.88;;;;;;;11.30;100.00;102189.53;5080273;28;20047;-85
2022/10/27 03:01:59;;;;;;;15.68;8.85;;;;;;;11.29;100.00;102189.50;5091311;28;20393;-85
2022/10/27 03:04:28;;;;;;;10.23;8.13;;;;;;;11.29;100.00;102184.22;5069808;28;20036;-84
2022/10/27 03:06:57;;;;;;;16.98;8.90;;;;;;;11.28;100.00;102198.25;5048580;28;20050;-84
2022/10/27 03:09:25;;;;;;;12.90;8.50;;;;;;;11.25;100.00;102183.25;5057439;28;20686;-84
2022/10/27 03:11:54;;;;;;;14.93;9.35;;;;;;;11.24;100.00;102183.22;5062161;28;20532;-84
2022/10/27 03:14:23;;;;;;;16.95;9.25;;;;;;;11.24;100.00;102183.22;5082092;28;20036;-84
2022/10/27 03:16:51;;;;;;;14.52;8.88;;;;;;;11.23;100.00;102179.69;5091530;28;20048;-84
2022/10/27 03:19:19;;;;;;;14.00;8.45;;;;;;;11.23;100.00;102184.09;5069316;28;20044;-84
2022/10/27 03:21:48;;;;;;;14.45;9.18;;;;;;;11.24;100.00;102178.81;5088455;28;20059;-84
2022/10/27 03:24:17;;;;;;;15.15;9.52;;;;;;;11.25;100.00;102183.25;5053982;28;20051;-84
2022/10/27 03:26:45;;;;;;;16.23;9.57;;;;;;;11.27;100.00;102185.94;5032026;28;20577;-83
2022/10/27 03:29:14;;;;;;;15.75;9.95;;;;;;;11.29;100.00;102181.56;5071193;28;20052;-84
2022/10/27 03:31:42;;;;;;;17.17;10.90;;;;;;;11.30;100.00;102183.34;5082511;28;20264;-84
2022/10/27 03:34:10;;;;;;;20.73;10.75;;;;;;;11.31;100.00;102183.38;5040242;28;20048;-85
2022/10/27 03:36:39;;;;;;;19.42;11.63;;;;;;;11.36;100.00;102185.22;5049085;28;20440;-85
2022/10/27 03:39:07;;;;;;;16.23;10.52;;;;;;;11.40;100.00;102173.84;5105948;28;20040;-83
2022/10/27 03:41:36;;;;;;;19.38;12.02;;;;;;;11.43;100.00;102168.66;5045265;28;20040;-83
2022/10/27 03:44:04;;;;;;;20.17;11.23;;;;;;;11.46;100.00;102166.97;5086920;28;20055;-84
2022/10/27 03:46:33;;;;;;;22.20;11.80;;;;;;;11.49;100.00;102180.25;5086047;28;20040;-83
2022/10/27 03:49:01;;;;;;;23.58;13.05;;;;;;;11.51;100.00;102174.97;5068661;28;20043;-82
2022/10/27 03:51:29;;;;;;;22.00;12.00;;;;;;;11.51;100.00;102174.97;5060861;28;20036;-85
2022/10/27 03:53:58;;;;;;;18.77;10.10;;;;;;;11.50;100.00;102178.50;5074138;28;20078;-83
2022/10/27 03:56:26;;;;;;;16.70;10.57;;;;;;;11.50;100.00;102187.28;5067186;28;20047;-85
2022/10/27 03:58:54;;;;;;;21.50;10.80;;;;;;;11.49;100.00;102190.81;5082075;28;20185;-84
2022/10/27 04:01:23;;;;;;;23.40;15.38;;;;;;;11.50;100.00;102194.34;5047389;27;21086;-82
2022/10/27 04:03:51;;;;;;;17.80;12.45;;;;;;;11.49;100.00;102185.53;5089026;28;20059;-83
2022/10/27 04:06:19;;;;;;;17.25;11.23;;;;;;;11.48;100.00;102177.56;5065907;28;20046;-84
2022/10/27 04:08:48;;;;;;;18.98;11.98;;;;;;;11.48;100.00;102178.44;5092357;28;20044;-84
2022/10/27 04:11:17;;;;;;;21.02;11.52;;;;;;;11.48;100.00;102178.44;5097200;28;20542;-83
2022/10/27 04:13:46;;;;;;;21.25;11.40;;;;;;;11.49;100.00;102185.53;5103907;28;20032;-85
2022/10/27 04:16:14;;;;;;;21.85;12.52;;;;;;;11.52;100.00;102184.69;5086032;28;20032;-85
2022/10/27 04:18:43;;;;;;;16.00;12.85;;;;;;;11.52;100.00;102182.94;5079483;28;20040;-82
2022/10/27 04:21:12;;;;;;;25.25;14.15;;;;;;;11.56;100.00;102193.56;5055346;28;20036;-83
2022/10/27 04:23:42;;;;;;;27.92;14.57;;;;;;;11.55;100.00;102195.31;5083585;28;20038;-84
2022/10/27 04:26:11;;;;;;;19.88;13.43;;;;;;;11.55;100.00;102190.03;5096414;28;20040;-85
2022/10/27 04:28:41;;;;;;;24.77;14.63;;;;;;;11.56;100.00;102188.28;5079038;28;20032;-83
2022/10/27 04:31:10;;;;;;;32.30;15.25;;;;;;;11.52;100.00;102190.84;5081728;28;20032;-83
2022/10/27 04:33:39;;;;;;;24.23;14.48;;;;;;;11.49;100.00;102189.88;5078873;28;20040;-83
2022/10/27 04:36:08;;;;;;;26.40;14.25;;;;;;;11.49;100.00;102184.63;5073421;28;20043;-84
2022/10/27 04:38:36;;;;;;;25.65;15.20;;;;;;;11.48;100.00;102188.13;5046245;28;20440;-85
2022/10/27 04:41:05;;;;;;;27.42;14.85;;;;;;;11.47;100.00;102183.69;5067069;28;20128;-83
2022/10/27 04:43:33;;;;;;;29.90;16.88;;;;;;;11.46;100.00;102192.50;5083290;28;20043;-83
2022/10/27 04:46:03;;;;;;;23.80;14.10;;;;;;;11.46;100.00;102192.50;5050374;28;20035;-84
2022/10/27 04:48:32;;;;;;;29.17;15.15;;;;;;;11.45;100.00;102190.69;5043786;28;20051;-85
2022/10/27 04:51:00;;;;;;;25.45;14.20;;;;;;;11.45;100.00;102196.84;5101944;28;20043;-84
2022/10/27 04:53:29;;;;;;;26.13;14.60;;;;;;;11.46;100.00;102192.50;5065207;28;20031;-83
2022/10/27 04:55:58;;;;;;;23.63;13.32;;;;;;;11.44;100.00;102188.94;5071758;28;20320;-84
2022/10/27 04:58:26;;;;;;;25.45;15.15;;;;;;;11.45;100.00;102182.78;5079912;28;20063;-84
2022/10/27 05:00:55;;;;;;;20.58;12.90;;;;;;;11.45;100.00;102180.13;5058631;28;20526;-84
2022/10/27 05:03:23;;;;;;;27.17;15.02;;;;;;;11.44;100.00;102178.38;5068133;28;20036;-84
2022/10/27 05:05:52;;;;;;;20.90;12.85;;;;;;;11.44;100.00;102183.66;5059396;28;20052;-84
2022/10/27 05:08:22;;;;;;;20.73;13.13;;;;;;;11.43;100.00;102180.09;5061661;28;20035;-84
2022/10/27 05:10:50;;;;;;;16.33;11.98;;;;;;;11.41;100.00;102178.28;5061374;28;20453;-84
2022/10/27 05:13:19;;;;;;;27.17;14.32;;;;;;;11.40;100.00;102172.13;5089994;28;20060;-84
2022/10/27 05:15:48;;;;;;;27.08;14.05;;;;;;;11.40;100.00;102176.50;5052515;28;20067;-82
2022/10/27 05:18:17;;;;;;;23.70;13.15;;;;;;;11.39;100.00;102172.09;5075062;28;20082;-86
2022/10/27 05:20:45;;;;;;;20.25;12.65;;;;;;;11.39;100.00;102177.38;5060012;28;20392;-85
2022/10/27 05:23:14;;;;;;;27.42;14.82;;;;;;;11.39;100.00;102174.75;5043620;28;20039;-84
2022/10/27 05:25:42;;;;;;;28.95;13.93;;;;;;;11.40;100.00;102176.50;5059866;28;20028;-85
2022/10/27 05:28:16;;;;;;;24.65;14.43;;;;;;;11.40;100.00;102171.22;5056852;28;20055;-85
2022/10/27 05:30:44;;;;;;;25.25;12.93;;;;;;;11.40;100.00;102171.22;5051232;28;20055;-85
2022/10/27 05:33:13;;;;;;;17.77;12.38;;;;;;;11.39;100.00;102169.47;5086610;28;20317;-85
2022/10/27 05:35:44;;;;;;;16.83;11.70;;;;;;;11.41;100.00;102173.00;5062753;28;20034;-85
2022/10/27 05:38:12;;;;;;;26.35;12.45;;;;;;;11.41;100.00;102167.75;5036685;28;24456;-85
2022/10/27 05:40:41;;;;;;;23.65;13.65;;;;;;;11.42;100.00;102174.81;5004262;28;20052;-85
2022/10/27 05:43:10;;;;;;;25.63;13.82;;;;;;;11.42;100.00;102169.53;5004289;28;20255;-85
2022/10/27 05:45:44;;;;;;;24.88;13.95;;;;;;;11.41;100.00;102171.25;4999276;28;20053;-85
2022/10/27 05:48:29;;;;;;;27.52;12.73;;;;;;;11.43;100.00;102181.84;5003782;28;20121;-85
2022/10/27 05:50:57;;;;;;;20.33;13.85;;;;;;;11.43;100.00;102192.41;5025636;28;20073;-85
2022/10/27 05:53:26;;;;;;;26.75;14.70;;;;;;;11.43;100.00;102193.28;4988976;28;20091;-85
2022/10/27 05:55:54;;;;;;;24.55;13.27;;;;;;;11.42;100.00;102190.66;5023871;28;20042;-86
2022/10/27 05:58:23;;;;;;;21.80;13.93;;;;;;;11.42;100.00;102196.81;5011883;28;20053;-83
2022/10/27 06:00:51;;;;;;;25.42;14.18;;;;;;;11.42;100.00;102199.44;5012314;28;20058;-84
2022/10/27 06:03:24;;;;;;;25.85;14.32;;;;;;;11.42;100.00;102201.22;5024335;28;20823;-83
2022/10/27 06:05:53;;;;;;;25.40;14.45;;;;;;;11.41;100.00;102192.38;5025353;28;20049;-84
2022/10/27 06:08:22;;;;;;;22.05;14.10;;;;;;;11.40;100.00;102187.97;5016856;28;20041;-83
2022/10/27 06:10:51;;;;;;;24.23;13.67;;;;;;;11.40;100.00;102187.06;4994068;28;20060;-84
2022/10/27 06:13:19;;;;;;;29.38;15.07;;;;;;;11.40;100.00;102192.34;5075133;28;20285;-83
2022/10/27 06:15:48;;;;;;;20.23;14.02;;;;;;;11.38;100.00;102187.06;5096654;28;20052;-84
2022/10/27 06:18:16;;;;;;;26.50;15.23;;;;;;;11.36;100.00;102188.78;5040599;28;20054;-84
2022/10/27 06:20:47;;;;;;;;;;;;;;;11.34;100.00;102193.09;5036206;28;20048;-84
2022/10/27 06:23:15;;;;;;;26.52;13.75;;;;;;;11.33;100.00;102191.34;5063854;28;19920;-83
2022/10/27 06:25:44;;;;;;;27.35;14.02;;;;;;;11.31;100.00;102183.38;5044371;28;20047;-84
2022/10/27 06:28:13;;;;;;;22.25;14.60;;;;;;;11.31;100.00;102191.28;5067129;28;20047;-83
2022/10/27 06:30:44;;;;;;;24.02;14.00;;;;;;;11.30;100.00;102186.88;5085753;28;20158;-83
2022/10/27 06:33:12;;;;;;;21.83;13.18;;;;;;;11.30;100.00;102189.53;5085800;28;20040;-84
2022/10/27 06:35:41;;;;;;;22.50;13.63;;;;;;;11.30;100.00;102201.81;5069081;28;20067;-84
2022/10/27 06:38:15;;;;;;;23.60;12.32;;;;;;;11.29;100.00;102200.94;5051842;28;20036;-83
2022/10/27 06:40:44;;;;;;;21.60;12.73;;;;;;;11.29;100.00;102202.69;5029597;28;20312;-84
2022/10/27 06:43:12;;;;;;;21.13;14.57;;;;;;;11.30;100.00;102197.44;5073744;28;20036;-84
2022/10/27 06:45:46;;;;;;;30.17;14.23;;;;;;;11.31;100.00;102193.94;5094948;28;20059;-84
2022/10/27 06:48:14;;;;;;;24.08;15.55;;;;;;;11.32;100.00;102190.44;5088883;28;20039;-84
2022/10/27 06:50:43;;;;;;;29.13;18.20;;;;;;;11.35;100.00;102191.38;5084874;28;20256;-84
2022/10/27 06:53:11;;;;;;;21.95;13.73;;;;;;;11.38;100.00;102201.97;5063743;28;20048;-83
2022/10/27 06:55:40;;;;;;;20.88;14.23;;;;;;;11.44;100.00;102189.81;5044167;28;20050;-84
2022/10/27 06:58:09;;;;;;;22.13;13.57;;;;;;;11.49;100.00;102205.72;5070745;28;20041;-84
2022/10/27 07:00:38;;;;;;;20.95;13.80;;;;;;;11.54;100.00;102201.44;5060344;28;20039;-84
2022/10/27 07:03:08;;;;;;;20.02;13.38;;;;;;;11.58;100.00;102202.41;5055498;28;20036;-83
2022/10/27 07:05:37;;;;;;;21.20;13.45;;;;;;;11.62;100.00;102199.84;5055185;28;20035;-84
2022/10/27 07:08:05;;;;;;;28.88;17.02;;;;;;;11.67;100.00;102198.19;5096169;27;20063;-83
2022/10/27 07:10:34;;;;;;;20.77;13.82;;;;;;;11.72;100.00;102198.31;5037627;28;20036;-85
2022/10/27 07:13:03;;;;;;;24.60;14.43;;;;;;;11.77;100.00;102204.56;5073517;28;20051;-86
2022/10/27 07:15:32;;;;;;;19.38;12.73;;;;;;;11.81;100.00;102200.22;5076274;28;20378;-84
2022/10/27 07:18:05;;;;;;;22.80;13.60;;;;;;;11.84;100.00;102205.56;5068690;28;20036;-84
2022/10/27 07:20:37;;;;;;;16.95;12.40;;;;;;;11.87;100.00;102203.88;5077486;28;20493;-85
2022/10/27 07:23:09;;;;;;;20.02;12.95;;;;;;;11.90;100.00;102203.09;5065857;28;20162;-85
2022/10/27 07:25:38;;;;;;;20.25;12.65;;;;;;;11.94;100.00;102206.69;5054363;28;20056;-86
2022/10/27 07:28:06;;;;;;;20.30;12.40;;;;;;;11.97;100.00;102206.75;5055309;28;20475;-83
2022/10/27 07:30:43;;;;;;;18.98;11.82;;;;;;;12.00;100.00;102210.34;5077186;28;20419;-83
2022/10/27 07:33:13;;;;;;;22.30;13.85;;;;;;;12.04;100.00;102209.53;5075320;28;20382;-83
2022/10/27 07:35:42;;;;;;;26.00;12.50;;;;;;;12.09;100.00;102199.03;5063512;28;20074;-84
2022/10/27 07:38:10;;;;;;;17.67;11.57;;;;;;;12.13;100.00;102207.91;5060064;28;20048;-84
2022/10/27 07:40:38;;;;;;;17.67;11.75;;;;;;;12.19;100.00;102205.38;5051980;28;20523;-84
2022/10/27 07:43:08;;;;;;;16.15;10.88;;;;;;;12.24;100.00;102203.72;5060034;28;20050;-84
2022/10/27 07:45:39;;;;;;;22.88;11.70;;;;;;;12.29;100.00;102195.00;5090534;28;20039;-84
2022/10/27 07:48:14;;;;;;;18.80;11.30;;;;;;;12.35;100.00;102196.88;5096716;28;20032;-84
2022/10/27 07:50:44;;;;;;;18.63;11.93;;;;;;;12.42;100.00;102196.13;5073430;28;20058;-84
2022/10/27 07:53:14;;;;;;;20.50;12.70;;;;;;;12.48;100.00;102198.84;5093181;28;20067;-84
2022/10/27 07:55:43;;;;;;;14.07;11.15;;;;;;;12.54;100.00;102197.19;5066050;28;20240;-84
2022/10/27 07:58:14;;;;;;;17.57;11.00;;;;;;;12.60;100.00;102184.94;5035196;28;20036;-84
2022/10/27 08:00:45;;;;;;;16.88;10.45;;;;;;;12.66;100.00;102185.06;5031942;28;20048;-84
2022/10/27 08:03:16;;;;;;;17.45;10.88;;;;;;;12.75;100.00;102191.34;5064422;28;20056;-84
2022/10/27 08:05:45;;;;;;;19.83;11.23;;;;;;;12.82;100.00;102188.81;5064651;28;20438;-84
2022/10/27 08:08:15;;;;;;;18.35;9.73;;;;;;;12.88;100.00;102188.03;5078728;28;20036;-84
2022/10/27 08:10:45;;;;;;;21.98;10.63;;;;;;;12.97;100.00;102203.16;5029477;28;20280;-84
2022/10/27 08:13:13;;;;;;;15.20;10.27;;;;;;;13.05;100.00;102193.56;5073194;28;20504;-84
2022/10/27 08:15:42;;;;;;;13.90;9.77;;;;;;;13.13;100.00;102193.66;5010210;28;20390;-84
2022/10/27 08:18:11;;;;;;;15.18;9.63;;;;;;;13.21;100.00;102197.31;5033906;28;20058;-83
2022/10/27 08:20:42;;;;;;;13.85;9.27;;;;;;;13.30;100.00;102199.19;5072036;28;20547;-84
2022/10/27 08:23:13;;;;;;;13.90;9.07;;;;;;;13.38;100.00;102198.47;5062853;28;20060;-84
2022/10/27 08:25:42;;;;;;;16.50;10.15;;;;;;;13.45;100.00;102195.00;5060892;28;20424;-84
2022/10/27 08:28:12;;;;;;;16.63;9.25;;;;;;;13.53;100.00;102191.59;5036539;28;20037;-83
2022/10/27 08:30:42;;;;;;;13.52;8.80;;;;;;;13.60;100.00;102188.16;5042955;28;20513;-83
2022/10/27 08:33:21;;;;;;;12.60;8.20;;;;;;;13.69;100.00;102190.91;5051216;28;20040;-84
2022/10/27 08:35:50;;;;;;;12.15;7.82;;;;;;;13.77;100.00;102186.56;5078943;28;20413;-83
2022/10/27 08:38:19;;;;;;;15.60;9.82;;;;;;;13.86;100.00;102176.97;5069680;28;20036;-83
2022/10/27 08:41:06;;;;;;;18.17;8.85;;;;;;;13.94;100.00;102178.81;5058923;28;20064;-84
2022/10/27 08:44:03;;;;;;;14.95;8.25;;;;;;;14.08;100.00;102175.41;5066688;28;20501;-84
2022/10/27 08:46:45;;;;;;;13.88;8.40;;;;;;;14.15;100.00;102174.59;5049369;28;20409;-84
2022/10/27 08:49:45;;;;;;;18.05;8.52;;;;;;;14.21;100.00;102182.59;5049286;28;20055;-83
2022/10/27 08:52:31;;;;;;;13.88;7.85;;;;;;;14.22;100.00;102181.75;5070229;28;20056;-83
2022/10/27 08:55:18;;;;;;;13.10;7.53;;;;;;;14.23;100.00;102187.06;5070852;28;20051;-84
2022/10/27 08:57:51;;;;;;;15.32;8.30;;;;;;;14.23;100.00;102181.78;5067418;28;20047;-84
2022/10/27 09:00:20;;;;;;;10.18;8.35;;;;;;;14.29;100.00;102185.31;5064239;28;20040;-84
2022/10/27 09:02:52;;;;;;;12.27;7.45;;;;;;;14.31;100.00;102187.13;5073029;28;20067;-84
2022/10/27 09:05:55;;;;;;;18.17;7.65;;;;;;;14.36;100.00;102188.03;5067767;28;20047;-84
2022/10/27 09:08:41;;;;;;;9.65;7.25;;;;;;;14.42;100.00;102180.16;5070374;28;20032;-84
2022/10/27 09:11:15;;;;;;;13.90;7.65;;;;;;;14.50;100.00;102181.97;5044405;28;20040;-83
2022/10/27 09:14:24;;;;;;;14.00;8.23;;;;;;;14.59;100.00;102184.72;5065433;28;20189;-83
2022/10/27 09:17:08;;;;;;;11.10;7.55;;;;;;;14.71;100.00;102183.97;5035838;28;20143;-83
2022/10/27 09:20:23;;;;;;;13.48;7.45;;;;;;;14.83;100.00;102181.38;5051712;28;20044;-83
2022/10/27 09:22:53;;;;;;;9.63;6.70;;;;;;;14.93;100.00;102179.66;5037349;28;20104;-84
2022/10/27 09:25:22;;;;;;;15.10;7.13;;;;;;;14.99;100.00;102175.31;5071004;28;20040;-85
2022/10/27 09:27:55;;;;;;;13.23;6.82;;;;;;;15.05;100.00;102179.75;5065079;28;20267;-84
2022/10/27 09:30:28;;;;;;;8.70;6.70;;;;;;;15.13;100.00;102174.50;5052542;28;20397;-85
2022/10/27 09:32:57;;;;;;;14.75;7.10;;;;;;;15.19;100.00;102172.75;5007371;28;20747;-84
2022/10/27 09:35:27;;;;;;;7.68;6.43;;;;;;;15.26;100.00;102168.34;5021851;28;20048;-85
2022/10/27 09:37:58;;;;;;;;;;;;;;;15.33;100.00;102169.25;4978332;28;20458;-84
2022/10/27 09:40:31;;;;;;;8.02;6.13;;;;;;;15.40;100.00;102166.63;5008956;28;20321;-85
2022/10/27 09:43:01;;;;;;;12.45;6.47;;;;;;;15.48;100.00;102161.38;4998764;28;20037;-85
2022/10/27 09:45:30;;;;;;;11.97;6.40;;;;;;;15.54;100.00;102169.38;4993317;28;20048;-86
2022/10/27 09:48:04;;;;;;;9.77;6.18;;;;;;;15.58;100.00;102163.19;5012448;28;20292;-85
2022/10/27 09:50:57;;;;;;;7.93;5.47;;;;;;;15.63;100.00;102165.84;5012251;28;20434;-85
2022/10/27 09:53:35;;;;;;;16.63;6.25;;;;;;;15.65;100.00;102164.09;5005765;28;20026;-85
2022/10/27 09:56:04;;;;;;;11.35;6.43;;;;;;;15.64;100.00;102164.09;5011858;28;20045;-85
2022/10/27 09:58:56;;;;;;;12.70;6.50;;;;;;;15.64;100.00;102162.31;5024239;28;20048;-85
2022/10/27 10:01:26;;;;;;;8.05;6.50;;;;;;;15.66;100.00;102149.91;5026557;28;20045;-85
2022/10/27 10:04:05;;;;;;;7.32;5.32;;;;;;;15.70;100.00;102154.34;5055597;28;20055;-85
2022/10/27 10:06:40;;;;;;;6.20;5.28;;;;;;;15.73;100.00;102150.84;5069456;28;20685;-85
2022/10/27 10:09:33;;;;;;;10.35;5.88;;;;;;;15.76;100.00;102135.81;5050375;28;20052;-85
2022/10/27 10:12:19;;;;;;;12.10;6.05;;;;;;;15.81;100.00;102135.81;5086162;28;20043;-85
2022/10/27 10:15:11;;;;;;;8.98;5.38;;;;;;;15.88;100.00;102126.97;5062009;28;20059;-86
2022/10/27 10:17:49;;;;;;;9.75;5.45;;;;;;;15.92;100.00;102127.88;5085396;28;20032;-85
2022/10/27 10:20:29;;;;;;;8.75;4.70;;;;;;;15.97;100.00;102128.75;5041602;28;20039;-84
2022/10/27 10:23:09;;;;;;;8.43;5.00;;;;;;;15.98;100.00;102125.22;5067590;28;20496;-84
2022/10/27 10:25:46;;;;;;;10.20;5.68;;;;;;;16.03;100.00;102122.53;5093411;28;20040;-85
2022/10/27 10:28:36;;;;;;;8.80;4.70;;;;;;;16.06;100.00;102118.13;5090590;28;20054;-84
2022/10/27 10:31:07;;;;;;;10.52;5.57;;;;;;;16.09;100.00;102126.09;5085049;28;20043;-84
2022/10/27 10:33:39;;;;;;;7.93;4.88;;;;;;;16.11;100.00;102113.69;5099904;28;20055;-85
2022/10/27 10:36:33;;;;;;;6.68;4.70;;;;;;;16.15;100.00;102111.94;5059024;28;20154;-84
2022/10/27 10:39:07;;;;;;;7.35;4.80;;;;;;;16.18;100.00;102117.22;5057827;28;20058;-85
2022/10/27 10:41:35;;;;;;;11.60;4.65;;;;;;;16.24;100.00;102106.63;5084425;28;20044;-85
2022/10/27 10:44:10;;;;;;;5.80;4.07;;;;;;;16.32;100.00;102112.81;5070674;28;20472;-85
2022/10/27 10:46:56;;;;;;;7.30;3.97;;;;;;;16.39;100.00;102103.06;5059489;28;20400;-85
2022/10/27 10:49:29;;;;;;;7.72;4.45;;;;;;;16.43;100.00;102099.50;5076435;28;20036;-85
2022/10/27 10:52:01;;;;;;;6.25;3.65;;;;;;;16.48;100.00;102092.41;5060839;28;20054;-84
2022/10/27 10:54:40;;;;;;;6.90;4.25;;;;;;;16.51;100.00;102097.72;5106921;28;20346;-84
2022/10/27 10:57:44;;;;;;;5.65;3.60;;;;;;;16.53;100.00;102090.59;5102326;28;20048;-85
2022/10/27 11:00:18;;;;;;;4.00;3.00;;;;;;;16.56;100.00;102090.63;5070129;28;20032;-85
2022/10/27 11:03:01;;;;;;;7.07;3.42;;;;;;;16.60;100.00;102091.50;5091542;28;20720;-86
2022/10/27 11:05:33;;;;;;;4.57;3.22;;;;;;;16.64;100.00;102079.06;5083889;28;20381;-85
2022/10/27 11:08:03;;;;;;;8.02;3.30;;;;;;;16.68;100.00;102081.72;5048526;28;20485;-85
2022/10/27 11:10:35;;;;;;;11.10;3.08;;;;;;;16.73;100.00;102081.72;5085619;28;20040;-85
2022/10/27 11:13:14;;;;;;;4.43;2.83;;;;;;;16.77;100.00;102086.13;5078945;28;20044;-84
2022/10/27 11:15:57;;;;;;;5.20;2.38;;;;;;;16.83;100.00;102087.94;5105084;28;20439;-84
2022/10/27 11:18:36;;;;;;;5.07;2.38;;;;;;;16.88;100.00;102079.03;5061871;28;20035;-86
2022/10/27 11:21:28;;;;;;;5.88;2.33;;;;;;;16.97;100.00;102087.88;5073144;28;20052;-85
2022/10/27 11:24:16;;;;;;;4.65;2.25;;;;;;;17.06;100.00;102077.19;5079087;28;20055;-85
2022/10/27 11:26:53;;;;;;;6.43;1.92;;;;;;;17.13;100.00;102071.81;5087457;28;20040;-85
2022/10/27 11:29:34;;;;;;;6.85;2.17;;;;;;;17.18;100.00;102068.25;5090489;28;20043;-86
2022/10/27 11:32:19;;;;;;;6.50;2.17;;;;;;;17.23;100.00;102062.00;5051190;28;20373;-84
2022/10/27 11:35:06;;;;;;;4.68;1.80;;;;;;;17.25;100.00;102065.53;5076882;28;20247;-85
2022/10/27 11:37:42;;;;;;;3.95;2.10;;;;;;;17.28;100.00;102062.00;5074178;28;20044;-85